createdAt,value
2018-09-21T00:02:19.465Z,15.00
2018-09-21T00:04:47.747Z,15.00
2018-09-21T00:07:16.046Z,14.90
2018-09-21T00:09:44.336Z,14.90
2018-09-21T00:12:12.622Z,14.80
2018-09-21T00:14:40.904Z,14.80
2018-09-21T00:17:09.199Z,14.80
2018-09-21T00:19:37.465Z,14.80
2018-09-21T00:22:05.777Z,14.70
2018-09-21T00:24:34.057Z,14.80
2018-09-21T00:27:02.324Z,14.80
2018-09-21T00:29:30.600Z,14.80
2018-09-21T00:31:58.890Z,14.80
2018-09-21T00:34:27.187Z,14.80
2018-09-21T00:36:55.461Z,14.70
2018-09-21T00:39:23.733Z,14.70
2018-09-21T00:41:52.004Z,14.60
2018-09-21T00:44:20.281Z,14.50
2018-09-21T00:46:48.552Z,14.50
2018-09-21T00:49:17.101Z,14.50
2018-09-21T00:51:45.517Z,14.50
2018-09-21T00:54:13.793Z,14.50
2018-09-21T00:56:42.056Z,14.50
2018-09-21T00:59:10.337Z,14.40
2018-09-21T01:01:38.629Z,14.50
2018-09-21T01:04:06.945Z,14.40
2018-09-21T01:06:35.246Z,14.40
2018-09-21T01:09:04.726Z,14.50
2018-09-21T01:11:33.017Z,14.40
2018-09-21T01:14:01.309Z,14.40
2018-09-21T01:16:29.677Z,14.40
2018-09-21T01:18:57.970Z,14.30
2018-09-21T01:21:26.309Z,14.30
2018-09-21T01:23:54.593Z,14.30
2018-09-21T01:26:22.881Z,14.20
2018-09-21T01:28:51.190Z,14.20
2018-09-21T01:31:19.492Z,14.20
2018-09-21T01:33:47.757Z,14.20
2018-09-21T01:36:16.025Z,14.20
2018-09-21T01:38:44.307Z,14.20
2018-09-21T01:41:12.657Z,14.20
2018-09-21T01:43:40.950Z,14.10
2018-09-21T01:46:09.229Z,14.10
2018-09-21T01:48:37.501Z,14.10
2018-09-21T01:51:05.789Z,14.00
2018-09-21T01:53:34.072Z,14.00
2018-09-21T01:56:02.333Z,13.90
2018-09-21T01:58:30.617Z,13.90
2018-09-21T02:00:58.889Z,13.80
2018-09-21T02:03:27.177Z,13.80
2018-09-21T02:05:55.436Z,13.80
2018-09-21T02:08:23.729Z,13.80
2018-09-21T02:10:52.045Z,13.80
2018-09-21T02:13:20.352Z,13.70
2018-09-21T02:15:48.671Z,13.70
2018-09-21T02:18:17.012Z,13.70
2018-09-21T02:20:45.317Z,13.80
2018-09-21T02:23:13.637Z,13.70
2018-09-21T02:25:41.934Z,13.70
2018-09-21T02:28:10.214Z,13.70
2018-09-21T02:30:38.577Z,13.70
2018-09-21T02:33:06.916Z,13.70
2018-09-21T02:35:35.229Z,13.70
2018-09-21T02:38:03.593Z,13.70
2018-09-21T02:40:31.941Z,13.70
2018-09-21T02:43:00.248Z,13.70
2018-09-21T02:45:28.561Z,13.70
2018-09-21T02:47:56.860Z,13.70
2018-09-21T02:50:25.149Z,13.70
2018-09-21T02:52:53.510Z,13.70
2018-09-21T02:55:21.737Z,13.70
2018-09-21T02:57:50.145Z,13.70
2018-09-21T03:00:18.514Z,13.70
2018-09-21T03:02:46.787Z,13.60
2018-09-21T03:05:15.089Z,13.60
2018-09-21T03:07:43.381Z,13.60
2018-09-21T03:10:11.673Z,13.60
2018-09-21T03:12:39.953Z,13.60
2018-09-21T03:15:08.370Z,13.50
2018-09-21T03:17:36.637Z,13.50
2018-09-21T03:20:05.152Z,13.50
2018-09-21T03:22:33.441Z,13.50
2018-09-21T03:25:01.749Z,13.50
2018-09-21T03:27:30.062Z,13.50
2018-09-21T03:29:58.428Z,13.40
2018-09-21T03:32:26.776Z,13.40
2018-09-21T03:34:55.157Z,13.40
2018-09-21T03:37:23.445Z,13.40
2018-09-21T03:39:51.730Z,13.40
2018-09-21T03:42:20.048Z,13.30
2018-09-21T03:44:48.331Z,13.30
2018-09-21T03:47:16.621Z,13.30
2018-09-21T03:49:44.884Z,13.30
2018-09-21T03:52:13.161Z,13.40
2018-09-21T03:54:41.481Z,13.40
2018-09-21T03:57:09.787Z,13.30
2018-09-21T03:59:38.094Z,13.30
2018-09-21T04:02:06.398Z,13.30
2018-09-21T04:04:34.673Z,13.30
2018-09-21T04:07:02.981Z,13.40
2018-09-21T04:09:31.280Z,13.40
2018-09-21T04:11:59.565Z,13.40
2018-09-21T04:14:27.850Z,13.40
2018-09-21T04:16:56.153Z,13.50
2018-09-21T04:19:24.422Z,13.40
2018-09-21T04:21:52.713Z,13.40
2018-09-21T04:24:21.024Z,13.40
2018-09-21T04:26:49.340Z,13.40
2018-09-21T04:29:17.652Z,13.40
2018-09-21T04:31:45.954Z,13.40
2018-09-21T04:34:14.272Z,13.40
2018-09-21T04:36:42.561Z,13.40
2018-09-21T04:39:12.305Z,13.50
2018-09-21T04:41:40.731Z,13.50
2018-09-21T04:44:09.180Z,13.40
2018-09-21T04:46:37.772Z,13.50
2018-09-21T04:49:06.188Z,13.50
2018-09-21T04:51:34.488Z,13.50
2018-09-21T04:54:02.773Z,13.50
2018-09-21T04:56:31.081Z,13.50
2018-09-21T04:58:59.380Z,13.50
2018-09-21T05:01:27.694Z,13.50
2018-09-21T05:03:55.981Z,13.60
2018-09-21T05:06:24.273Z,13.50
2018-09-21T05:08:52.549Z,13.50
2018-09-21T05:11:21.128Z,13.60
2018-09-21T05:13:49.472Z,13.50
2018-09-21T05:16:17.745Z,13.50
2018-09-21T05:18:46.015Z,13.50
2018-09-21T05:21:14.288Z,13.50
2018-09-21T05:23:42.570Z,13.60
2018-09-21T05:26:10.841Z,13.60
2018-09-21T05:28:39.168Z,13.60
2018-09-21T05:31:07.485Z,13.70
2018-09-21T05:33:35.753Z,13.70
2018-09-21T05:36:04.059Z,13.80
2018-09-21T05:38:32.325Z,13.90
2018-09-21T05:41:00.612Z,13.90
2018-09-21T05:43:28.893Z,13.90
2018-09-21T05:45:57.181Z,14.00
2018-09-21T05:48:25.450Z,14.10
2018-09-21T05:50:53.728Z,14.10
2018-09-21T05:53:22.012Z,14.20
2018-09-21T05:55:50.272Z,14.20
2018-09-21T05:58:18.541Z,14.30
2018-09-21T06:00:46.825Z,14.40
2018-09-21T06:03:15.098Z,14.50
2018-09-21T06:05:43.353Z,14.60
2018-09-21T06:08:11.657Z,14.70
2018-09-21T06:10:39.936Z,14.80
2018-09-21T06:13:08.201Z,14.90
2018-09-21T06:15:36.496Z,15.00
2018-09-21T06:18:04.810Z,15.20
2018-09-21T06:20:33.085Z,15.20
2018-09-21T06:23:01.439Z,15.40
2018-09-21T06:25:29.668Z,15.50
2018-09-21T06:27:57.942Z,15.60
2018-09-21T06:30:26.230Z,15.70
2018-09-21T06:32:54.553Z,15.80
2018-09-21T06:35:22.849Z,15.90
2018-09-21T06:37:51.146Z,16.10
2018-09-21T06:40:19.422Z,16.20
2018-09-21T06:42:47.712Z,16.40
2018-09-21T06:45:16.051Z,16.50
2018-09-21T06:47:44.346Z,16.60
2018-09-21T06:50:12.637Z,16.80
2018-09-21T06:52:40.929Z,16.90
2018-09-21T06:55:09.209Z,17.00
2018-09-21T06:57:37.492Z,17.20
2018-09-21T07:00:05.842Z,17.30
2018-09-21T07:02:34.152Z,17.50
2018-09-21T07:05:07.789Z,17.60
2018-09-21T07:07:36.187Z,17.80
2018-09-21T07:10:04.560Z,17.90
2018-09-21T07:12:32.774Z,18.00
2018-09-21T07:15:01.040Z,18.20
2018-09-21T07:17:29.319Z,18.30
2018-09-21T07:19:57.605Z,18.50
2018-09-21T07:22:25.976Z,18.60
2018-09-21T07:24:54.424Z,18.80
2018-09-21T07:27:22.745Z,18.90
2018-09-21T07:29:51.183Z,19.00
2018-09-21T07:32:19.485Z,19.20
2018-09-21T07:34:47.753Z,19.30
2018-09-21T07:37:16.048Z,19.40
2018-09-21T07:39:44.325Z,19.60
2018-09-21T07:42:12.596Z,19.70
2018-09-21T07:44:40.959Z,19.90
2018-09-21T07:47:09.270Z,20.00
2018-09-21T07:49:37.562Z,20.10
2018-09-21T07:52:05.840Z,20.10
2018-09-21T07:54:34.148Z,20.20
2018-09-21T07:57:02.514Z,20.40
2018-09-21T07:59:30.891Z,20.50
2018-09-21T08:01:59.778Z,20.60
2018-09-21T08:04:28.361Z,20.70
2018-09-21T08:06:56.788Z,20.80
2018-09-21T08:09:25.076Z,20.90
2018-09-21T08:11:53.361Z,21.00
2018-09-21T08:14:21.648Z,21.10
2018-09-21T08:16:49.929Z,21.20
2018-09-21T08:19:18.211Z,21.30
2018-09-21T08:21:46.507Z,21.30
2018-09-21T08:24:14.785Z,21.40
2018-09-21T08:26:43.173Z,21.50
2018-09-21T08:29:11.376Z,21.60
2018-09-21T08:31:39.662Z,21.70
2018-09-21T08:34:07.953Z,21.70
2018-09-21T08:36:36.236Z,21.80
2018-09-21T08:39:08.032Z,21.80
2018-09-21T08:41:36.612Z,21.90
2018-09-21T08:44:04.904Z,22.00
2018-09-21T08:46:33.176Z,22.10
2018-09-21T08:49:01.468Z,22.20
2018-09-21T08:51:29.745Z,22.30
2018-09-21T08:53:58.040Z,22.40
2018-09-21T08:56:26.378Z,22.50
2018-09-21T08:58:54.696Z,22.60
2018-09-21T09:01:27.665Z,22.60
2018-09-21T09:03:55.988Z,22.70
2018-09-21T09:06:24.286Z,22.70
2018-09-21T09:08:52.613Z,22.80
2018-09-21T09:11:20.947Z,22.90
2018-09-21T09:13:49.234Z,22.90
2018-09-21T09:16:17.516Z,22.90
2018-09-21T09:18:45.810Z,23.00
2018-09-21T09:21:14.081Z,23.10
2018-09-21T09:23:42.361Z,23.20
2018-09-21T09:26:10.645Z,23.20
2018-09-21T09:28:38.926Z,23.30
2018-09-21T09:31:07.256Z,23.40
2018-09-21T09:33:35.550Z,23.50
2018-09-21T09:36:03.844Z,23.60
2018-09-21T09:38:32.178Z,23.70
2018-09-21T09:41:00.459Z,23.80
2018-09-21T09:43:28.744Z,23.90
2018-09-21T09:45:57.025Z,24.10
2018-09-21T09:48:25.375Z,24.10
2018-09-21T09:50:53.590Z,24.10
2018-09-21T09:53:21.881Z,24.20
2018-09-21T09:55:50.173Z,24.30
2018-09-21T09:58:18.450Z,24.40
2018-09-21T10:00:52.188Z,24.40
2018-09-21T10:03:21.521Z,24.50
2018-09-21T10:05:49.821Z,24.60
2018-09-21T10:08:18.139Z,24.70
2018-09-21T10:10:46.433Z,24.90
2018-09-21T10:13:14.748Z,25.00
2018-09-21T10:15:43.004Z,25.20
2018-09-21T10:18:11.298Z,25.40
2018-09-21T10:20:39.643Z,25.50
2018-09-21T10:23:08.094Z,25.40
2018-09-21T10:25:36.401Z,25.40
2018-09-21T10:28:04.990Z,25.50
2018-09-21T10:30:33.257Z,25.60
2018-09-21T10:33:01.545Z,25.60
2018-09-21T10:35:29.867Z,25.70
2018-09-21T10:37:58.137Z,25.80
2018-09-21T10:40:26.457Z,26.00
2018-09-21T10:42:54.810Z,26.10
2018-09-21T10:45:23.058Z,26.10
2018-09-21T10:47:51.745Z,26.20
2018-09-21T10:50:20.020Z,26.30
2018-09-21T10:52:48.379Z,26.60
2018-09-21T10:55:16.690Z,26.60
2018-09-21T10:57:44.977Z,26.70
2018-09-21T11:00:13.267Z,26.80
2018-09-21T11:02:41.567Z,26.70
2018-09-21T11:05:09.874Z,26.70
2018-09-21T11:07:38.169Z,26.70
2018-09-21T11:10:06.516Z,26.80
2018-09-21T11:12:35.085Z,26.80
2018-09-21T11:15:04.269Z,26.70
2018-09-21T11:17:32.558Z,26.60
2018-09-21T11:20:00.873Z,26.50
2018-09-21T11:22:29.233Z,26.30
2018-09-21T11:28:01.169Z,26.10
2018-09-21T11:30:29.506Z,26.10
2018-09-21T11:32:57.935Z,26.20
2018-09-21T11:35:26.295Z,26.20
2018-09-21T11:37:54.638Z,26.20
2018-09-21T11:40:23.065Z,26.30
2018-09-21T11:42:51.470Z,26.40
2018-09-21T11:45:19.829Z,26.50
2018-09-21T11:47:48.280Z,26.50
2018-09-21T11:50:16.710Z,26.50
2018-09-21T11:52:45.207Z,26.60
2018-09-21T11:55:13.593Z,26.60
2018-09-21T11:57:41.963Z,26.50
2018-09-21T12:00:10.385Z,26.60
2018-09-21T12:02:38.822Z,26.70
2018-09-21T12:05:07.386Z,26.80
2018-09-21T12:07:42.173Z,26.80
2018-09-21T12:10:10.511Z,26.80
2018-09-21T12:12:38.906Z,26.80
2018-09-21T12:15:07.507Z,26.80
2018-09-21T12:17:36.943Z,26.90
2018-09-21T12:20:05.613Z,27.00
2018-09-21T12:22:33.971Z,26.90
2018-09-21T12:25:02.321Z,26.90
2018-09-21T12:27:30.825Z,26.90
2018-09-21T12:29:59.236Z,27.00
2018-09-21T12:32:27.732Z,27.00
2018-09-21T12:34:56.343Z,27.10
2018-09-21T12:37:24.742Z,27.10
2018-09-21T12:39:53.083Z,27.00
2018-09-21T12:42:21.486Z,26.90
2018-09-21T12:44:49.985Z,26.80
2018-09-21T12:47:18.379Z,26.90
2018-09-21T12:49:46.829Z,26.80
2018-09-21T12:52:15.396Z,26.90
2018-09-21T12:54:43.778Z,26.90
2018-09-21T12:57:12.244Z,27.00
2018-09-21T12:59:40.613Z,26.90
2018-09-21T13:02:09.005Z,27.00
2018-09-21T13:04:37.486Z,27.10
2018-09-21T13:07:05.905Z,27.00
2018-09-21T13:09:34.635Z,27.00
2018-09-21T13:12:03.086Z,27.00
2018-09-21T13:14:31.512Z,27.10
2018-09-21T13:16:59.849Z,27.10
2018-09-21T13:19:28.221Z,27.10
2018-09-21T13:21:56.673Z,27.10
2018-09-21T13:24:25.037Z,27.20
2018-09-21T13:26:53.528Z,27.30
2018-09-21T13:29:21.910Z,27.20
2018-09-21T13:31:50.232Z,27.30
2018-09-21T13:34:18.609Z,27.30
2018-09-21T13:36:47.030Z,27.40
2018-09-21T13:39:15.418Z,27.60
2018-09-21T13:41:43.816Z,27.70
2018-09-21T13:44:12.216Z,27.90
2018-09-21T13:46:40.660Z,27.90
2018-09-21T13:49:09.106Z,27.80
2018-09-21T13:51:37.528Z,27.50
2018-09-21T13:54:05.920Z,27.30
2018-09-21T13:56:34.313Z,27.10
2018-09-21T13:59:02.735Z,27.20
2018-09-21T14:01:31.568Z,27.20
2018-09-21T14:04:00.241Z,27.20
2018-09-21T14:06:28.637Z,27.10
2018-09-21T14:08:57.100Z,27.00
2018-09-21T14:11:25.502Z,26.90
2018-09-21T14:13:53.983Z,26.90
2018-09-21T14:16:22.393Z,27.00
2018-09-21T14:18:51.163Z,26.90
2018-09-21T14:21:19.746Z,26.90
2018-09-21T14:23:48.150Z,26.90
2018-09-21T14:26:16.684Z,26.90
2018-09-21T14:28:45.088Z,26.80
2018-09-21T14:31:13.468Z,26.80
2018-09-21T14:33:41.987Z,26.80
2018-09-21T14:36:10.431Z,26.60
2018-09-21T14:38:38.837Z,26.60
2018-09-21T14:41:07.535Z,26.60
2018-09-21T14:43:35.989Z,26.60
2018-09-21T14:46:04.476Z,26.50
2018-09-21T14:48:33.837Z,26.40
2018-09-21T14:51:02.282Z,26.30
2018-09-21T14:53:30.717Z,26.20
2018-09-21T14:55:59.120Z,26.20
2018-09-21T14:58:27.524Z,26.10
2018-09-21T15:00:55.961Z,26.10
2018-09-21T15:03:24.404Z,26.10
2018-09-21T15:05:52.882Z,26.00
2018-09-21T15:08:21.338Z,25.90
2018-09-21T15:10:49.849Z,25.90
2018-09-21T15:13:18.237Z,26.00
2018-09-21T15:15:46.656Z,26.00
2018-09-21T15:18:15.022Z,25.90
2018-09-21T15:20:43.436Z,25.80
2018-09-21T15:23:11.916Z,25.80
2018-09-21T15:25:40.313Z,25.60
2018-09-21T15:28:08.737Z,25.50
2018-09-21T15:30:37.173Z,25.50
2018-09-21T15:33:05.552Z,25.40
2018-09-21T15:35:33.976Z,25.30
2018-09-21T15:38:02.337Z,25.20
2018-09-21T15:40:30.707Z,25.10
2018-09-21T15:42:59.198Z,25.00
2018-09-21T15:45:27.924Z,24.80
2018-09-21T15:47:56.325Z,24.80
2018-09-21T15:50:24.708Z,24.80
2018-09-21T15:52:53.203Z,24.70
2018-09-21T15:55:21.511Z,24.70
2018-09-21T15:57:49.972Z,24.60
2018-09-21T16:00:18.374Z,24.60
2018-09-21T16:02:46.786Z,24.60
2018-09-21T16:05:15.197Z,24.40
2018-09-21T16:07:43.631Z,24.40
2018-09-21T16:10:11.992Z,24.30
2018-09-21T16:12:40.357Z,24.20
2018-09-21T16:15:08.769Z,24.20
2018-09-21T16:17:37.135Z,24.20
2018-09-21T16:20:05.619Z,24.10
2018-09-21T16:22:34.140Z,24.10
2018-09-21T16:25:02.485Z,24.10
2018-09-21T16:27:30.897Z,24.10
2018-09-21T16:29:59.234Z,24.00
2018-09-21T16:32:27.688Z,24.00
2018-09-21T16:34:56.198Z,24.00
2018-09-21T16:37:24.584Z,23.90
2018-09-21T16:39:52.967Z,23.90
2018-09-21T16:42:21.348Z,23.80
2018-09-21T16:44:49.716Z,23.80
2018-09-21T16:47:18.053Z,23.80
2018-09-21T16:49:46.361Z,23.80
2018-09-21T16:52:14.810Z,23.80
2018-09-21T16:54:43.131Z,23.70
2018-09-21T16:57:11.527Z,23.70
2018-09-21T16:59:39.907Z,23.70
2018-09-21T17:02:08.220Z,23.70
2018-09-21T17:04:36.599Z,23.60
2018-09-21T17:07:04.857Z,23.60
2018-09-21T17:09:33.169Z,23.50
2018-09-21T17:12:01.431Z,23.50
2018-09-21T17:14:29.767Z,23.50
2018-09-21T17:16:58.040Z,23.40
2018-09-21T17:19:26.320Z,23.40
2018-09-21T17:21:54.598Z,23.30
2018-09-21T17:24:22.877Z,23.30
2018-09-21T17:26:51.182Z,23.20
2018-09-21T17:29:19.502Z,23.10
2018-09-21T17:31:47.865Z,23.00
2018-09-21T17:34:16.105Z,22.90
2018-09-21T17:36:44.378Z,22.80
2018-09-21T17:39:13.513Z,22.60
2018-09-21T17:41:41.888Z,22.40
2018-09-21T17:44:10.360Z,22.30
2018-09-21T17:46:38.675Z,22.20
2018-09-21T17:49:07.118Z,22.20
2018-09-21T17:51:35.450Z,22.10
2018-09-21T17:54:03.789Z,22.10
2018-09-21T17:56:32.171Z,22.00
2018-09-21T17:59:00.484Z,21.90
2018-09-21T18:01:28.804Z,21.90
2018-09-21T18:03:57.092Z,21.80
2018-09-21T18:06:25.364Z,21.80
2018-09-21T18:08:53.651Z,21.70
2018-09-21T18:11:21.941Z,21.60
2018-09-21T18:13:50.212Z,21.50
2018-09-21T18:16:18.529Z,21.50
2018-09-21T18:18:46.817Z,21.30
2018-09-21T18:21:15.109Z,21.20
2018-09-21T18:23:43.377Z,21.10
2018-09-21T18:26:11.679Z,21.00
2018-09-21T18:28:39.958Z,20.90
2018-09-21T18:31:08.642Z,20.80
2018-09-21T18:33:36.916Z,20.80
2018-09-21T18:36:05.219Z,20.80
2018-09-21T18:38:33.517Z,20.70
2018-09-21T18:41:01.821Z,20.70
2018-09-21T18:43:30.096Z,20.70
2018-09-21T18:45:58.369Z,20.70
2018-09-21T18:48:26.662Z,20.70
2018-09-21T18:50:54.940Z,20.70
2018-09-21T18:53:23.381Z,20.60
2018-09-21T18:55:51.666Z,20.60
2018-09-21T18:58:19.968Z,20.60
2018-09-21T19:00:48.286Z,20.60
2018-09-21T19:03:16.568Z,20.60
2018-09-21T19:05:44.884Z,20.40
2018-09-21T19:08:13.179Z,20.20
2018-09-21T19:10:41.458Z,20.00
2018-09-21T19:13:09.746Z,20.00
2018-09-21T19:15:38.045Z,20.00
2018-09-21T19:18:06.394Z,19.80
2018-09-21T19:20:34.680Z,19.50
2018-09-21T19:23:03.124Z,19.10
2018-09-21T19:25:31.400Z,18.70
2018-09-21T19:27:59.685Z,18.20
2018-09-21T19:30:27.972Z,17.60
2018-09-21T19:32:56.304Z,17.00
2018-09-21T19:35:24.592Z,16.40
2018-09-21T19:37:52.881Z,16.00
2018-09-21T19:40:21.177Z,15.30
2018-09-21T19:42:49.557Z,14.80
2018-09-21T19:45:17.848Z,14.50
2018-09-21T19:47:46.085Z,14.20
2018-09-21T19:50:14.384Z,14.00
2018-09-21T19:52:42.736Z,13.70
2018-09-21T19:55:11.088Z,13.50
2018-09-21T19:57:39.395Z,13.30
2018-09-21T20:00:07.771Z,13.20
2018-09-21T20:02:36.055Z,13.00
2018-09-21T20:05:04.356Z,12.90
2018-09-21T20:07:32.690Z,12.80
2018-09-21T20:10:01.004Z,12.60
2018-09-21T20:12:29.343Z,12.50
2018-09-21T20:14:57.876Z,12.30
2018-09-21T20:17:26.188Z,12.10
2018-09-21T20:19:54.497Z,12.00
2018-09-21T20:22:22.841Z,11.90
2018-09-21T20:24:51.142Z,11.80
2018-09-21T20:27:19.468Z,11.80
2018-09-21T20:29:47.762Z,11.70
2018-09-21T20:32:21.468Z,11.70
2018-09-21T20:34:49.782Z,11.70
2018-09-21T20:37:18.367Z,11.80
2018-09-21T20:39:46.644Z,11.80
2018-09-21T20:42:14.917Z,11.80
2018-09-21T20:44:43.231Z,11.80
2018-09-21T20:47:11.512Z,11.80
2018-09-21T20:49:40.098Z,11.80
2018-09-21T20:52:08.524Z,11.80
2018-09-21T20:54:36.828Z,11.70
2018-09-21T20:57:05.218Z,11.70
2018-09-21T20:59:33.492Z,11.60
2018-09-21T21:02:01.815Z,11.60
2018-09-21T21:04:30.124Z,11.60
2018-09-21T21:06:58.451Z,11.60
2018-09-21T21:09:26.748Z,11.60
2018-09-21T21:11:55.188Z,11.60
2018-09-21T21:14:23.713Z,11.60
2018-09-21T21:16:52.105Z,11.60
2018-09-21T21:19:20.461Z,11.60
2018-09-21T21:21:48.792Z,11.60
2018-09-21T21:24:18.072Z,11.70
2018-09-21T21:26:46.426Z,11.70
2018-09-21T21:29:14.853Z,11.70
2018-09-21T21:31:43.220Z,11.70
2018-09-21T21:34:11.528Z,11.70
2018-09-21T21:36:39.832Z,11.70
2018-09-21T21:39:09.136Z,11.70
2018-09-21T21:41:37.469Z,11.80
2018-09-21T21:44:05.873Z,11.90
2018-09-21T21:46:34.212Z,11.90
2018-09-21T21:49:02.604Z,11.90
2018-09-21T21:51:30.964Z,12.00
2018-09-21T21:53:59.492Z,12.00
2018-09-21T21:56:27.825Z,12.00
2018-09-21T21:58:56.365Z,12.10
2018-09-21T22:01:30.296Z,12.00
2018-09-21T22:03:58.873Z,12.10
2018-09-21T22:06:28.797Z,12.10
2018-09-21T22:08:59.289Z,12.10
2018-09-21T22:11:33.170Z,12.00
2018-09-21T22:14:08.184Z,12.00
2018-09-21T22:16:37.084Z,12.10
2018-09-21T22:19:06.038Z,12.10
2018-09-21T22:21:34.554Z,12.20
2018-09-21T22:24:03.413Z,12.20
2018-09-21T22:26:32.519Z,12.30
2018-09-21T22:29:01.337Z,12.30
2018-09-21T22:31:30.575Z,12.40
2018-09-21T22:33:58.951Z,12.40
2018-09-21T22:36:27.315Z,12.40
2018-09-21T22:38:56.029Z,12.50
2018-09-21T22:41:24.439Z,12.50
2018-09-21T22:43:52.864Z,12.50
2018-09-21T22:46:21.152Z,12.50
2018-09-21T22:48:49.698Z,12.60
2018-09-21T22:51:18.519Z,12.50
2018-09-21T22:53:46.852Z,12.50
2018-09-21T22:56:15.152Z,12.50
2018-09-21T22:58:43.508Z,12.50
2018-09-21T23:01:11.861Z,12.50
2018-09-21T23:03:40.285Z,12.50
2018-09-21T23:06:09.028Z,12.60
2018-09-21T23:08:37.565Z,12.50
2018-09-21T23:11:06.106Z,12.50
2018-09-21T23:13:34.418Z,12.50
2018-09-21T23:16:02.774Z,12.50
2018-09-21T23:18:31.207Z,12.40
2018-09-21T23:20:59.647Z,12.30
2018-09-21T23:23:28.324Z,12.30
2018-09-21T23:25:56.682Z,12.30
2018-09-21T23:28:25.141Z,12.30
2018-09-21T23:30:53.445Z,12.20
2018-09-21T23:33:21.756Z,12.20
2018-09-21T23:35:50.037Z,12.10
2018-09-21T23:38:18.368Z,12.20
2018-09-21T23:40:46.683Z,12.20
2018-09-21T23:43:15.003Z,12.20
2018-09-21T23:45:43.333Z,12.30
2018-09-21T23:48:11.725Z,12.30
2018-09-21T23:50:40.113Z,12.40
2018-09-21T23:53:08.585Z,12.40
2018-09-21T23:55:36.921Z,12.30
2018-09-21T23:58:05.222Z,12.40
